createdAt,value
2023-01-26T00:01:17.290Z,53.90
2023-01-26T00:03:43.995Z,48.20
2023-01-26T00:06:12.384Z,48.40
2023-01-26T00:08:40.517Z,46.00
2023-01-26T00:11:08.353Z,42.50
2023-01-26T00:13:35.519Z,41.50
2023-01-26T00:16:02.789Z,43.00
2023-01-26T00:18:30.420Z,48.10
2023-01-26T00:21:01.771Z,42.60
2023-01-26T00:23:29.946Z,39.20
2023-01-26T00:25:57.307Z,41.30
2023-01-26T00:28:24.141Z,39.10
2023-01-26T00:30:51.027Z,38.60
2023-01-26T00:33:18.345Z,39.40
2023-01-26T00:35:53.888Z,35.10
2023-01-26T00:38:20.730Z,39.70
2023-01-26T00:40:48.395Z,44.90
2023-01-26T00:43:15.580Z,40.40
2023-01-26T00:45:42.388Z,37.60
2023-01-26T00:48:12.817Z,37.40
2023-01-26T00:58:24.784Z,40.90
2023-01-26T01:00:53.477Z,42.80
2023-01-26T01:03:21.662Z,43.60
2023-01-26T01:05:49.906Z,42.90
2023-01-26T01:08:18.067Z,40.10
2023-01-26T01:10:46.159Z,39.00
2023-01-26T01:13:19.452Z,45.60
2023-01-26T01:15:47.846Z,44.50
2023-01-26T01:18:17.451Z,47.60
2023-01-26T01:20:47.460Z,42.60
2023-01-26T01:23:16.000Z,43.00
2023-01-26T01:25:44.027Z,47.50
2023-01-26T01:28:12.877Z,42.50
2023-01-26T01:30:41.622Z,40.90
2023-01-26T01:33:10.165Z,41.00
2023-01-26T01:35:38.220Z,38.70
2023-01-26T01:38:06.822Z,39.00
2023-01-26T01:40:35.508Z,37.30
2023-01-26T01:43:03.595Z,36.50
2023-01-26T01:45:41.627Z,34.80
2023-01-26T01:48:19.085Z,34.70
2023-01-26T01:50:47.252Z,38.10
2023-01-26T01:53:19.743Z,37.90
2023-01-26T01:55:48.515Z,37.00
2023-01-26T01:58:16.728Z,36.80
2023-01-26T02:00:45.003Z,35.30
2023-01-26T02:03:19.319Z,38.30
2023-01-26T02:06:09.092Z,36.20
2023-01-26T02:08:45.227Z,39.70
2023-01-26T02:11:17.893Z,39.00
2023-01-26T02:13:47.575Z,38.50
2023-01-26T02:18:45.881Z,35.60
2023-01-26T02:21:18.730Z,34.50
2023-01-26T02:24:19.980Z,36.80
2023-01-26T02:26:48.144Z,35.10
2023-01-26T02:29:16.915Z,35.50
2023-01-26T02:31:45.598Z,35.80
2023-01-26T02:34:13.922Z,36.60
2023-01-26T02:36:42.364Z,34.80
2023-01-26T02:39:59.798Z,34.70
2023-01-26T02:42:42.192Z,35.60
2023-01-26T02:45:15.301Z,37.50
2023-01-26T02:47:45.529Z,37.40
2023-01-26T02:50:17.069Z,37.80
2023-01-26T02:52:45.578Z,37.70
2023-01-26T02:55:26.415Z,37.60
2023-01-26T02:57:56.556Z,39.50
2023-01-26T03:00:32.881Z,37.60
2023-01-26T03:03:01.341Z,38.80
2023-01-26T03:05:32.657Z,38.60
2023-01-26T03:08:01.638Z,39.80
2023-01-26T03:10:37.178Z,41.80
2023-01-26T03:13:05.789Z,43.50
2023-01-26T03:15:43.426Z,43.70
2023-01-26T03:18:35.016Z,44.30
2023-01-26T03:21:28.358Z,49.50
2023-01-26T03:24:15.292Z,44.30
2023-01-26T03:27:03.137Z,43.30
2023-01-26T03:29:31.546Z,39.20
2023-01-26T03:32:01.095Z,38.40
2023-01-26T03:34:29.969Z,36.60
2023-01-26T03:37:00.099Z,36.10
2023-01-26T03:39:55.326Z,33.40
2023-01-26T03:42:42.740Z,38.20
2023-01-26T03:45:29.946Z,33.70
2023-01-26T03:48:28.545Z,34.80
2023-01-26T03:51:16.073Z,37.40
2023-01-26T03:54:03.739Z,39.20
2023-01-26T03:56:35.082Z,37.70
2023-01-26T03:59:10.116Z,36.40
2023-01-26T04:01:42.615Z,39.30
2023-01-26T04:04:30.381Z,40.60
2023-01-26T04:07:17.538Z,41.40
2023-01-26T04:12:18.165Z,38.30
2023-01-26T04:15:16.827Z,39.00
2023-01-26T04:18:04.076Z,38.20
2023-01-26T04:20:52.555Z,43.40
2023-01-26T04:23:20.682Z,71.00
2023-01-26T04:25:50.632Z,76.30
2023-01-26T04:28:19.706Z,54.50
2023-01-26T04:30:49.551Z,38.90
2023-01-26T04:33:18.107Z,34.30
2023-01-26T04:35:46.480Z,36.40
2023-01-26T04:38:14.702Z,36.20
2023-01-26T04:40:44.157Z,38.60
2023-01-26T04:43:12.411Z,34.20
2023-01-26T04:45:40.636Z,34.50
2023-01-26T04:48:09.153Z,35.10
2023-01-26T04:50:37.511Z,35.70
2023-01-26T04:53:06.080Z,31.00
2023-01-26T04:55:34.162Z,30.60
2023-01-26T04:58:03.944Z,30.70
2023-01-26T05:00:32.705Z,32.30
2023-01-26T05:03:05.077Z,32.80
2023-01-26T05:05:38.314Z,30.60
2023-01-26T05:08:06.607Z,33.30
2023-01-26T05:10:35.499Z,31.60
2023-01-26T05:13:38.271Z,32.70
2023-01-26T05:16:17.314Z,30.20
2023-01-26T05:19:02.132Z,29.30
2023-01-26T05:21:44.137Z,33.80
2023-01-26T05:24:13.373Z,33.60
2023-01-26T05:27:19.332Z,32.30
2023-01-26T05:29:51.417Z,30.90
2023-01-26T05:32:20.264Z,29.80
2023-01-26T05:34:48.482Z,31.50
2023-01-26T05:37:16.922Z,29.30
2023-01-26T05:39:46.717Z,30.00
2023-01-26T05:42:16.165Z,31.00
2023-01-26T05:45:16.671Z,35.10
2023-01-26T05:47:45.758Z,36.80
2023-01-26T05:50:13.955Z,34.10
2023-01-26T05:52:46.684Z,28.80
2023-01-26T05:55:14.873Z,27.30
2023-01-26T05:57:43.172Z,30.70
2023-01-26T06:00:12.681Z,28.80
2023-01-26T06:02:48.464Z,29.30
2023-01-26T06:05:18.025Z,29.80
2023-01-26T06:07:47.337Z,29.60
2023-01-26T06:10:19.915Z,30.30
2023-01-26T06:13:03.618Z,30.70
2023-01-26T06:15:42.693Z,31.40
2023-01-26T06:18:11.541Z,30.80
2023-01-26T06:23:14.487Z,29.10
2023-01-26T06:25:45.833Z,31.30
2023-01-26T06:28:14.681Z,34.20
2023-01-26T06:30:42.739Z,31.30
2023-01-26T06:33:13.117Z,33.00
2023-01-26T06:35:42.224Z,34.30
2023-01-26T06:38:15.716Z,35.20
2023-01-26T06:40:43.804Z,34.60
2023-01-26T06:43:15.948Z,35.40
2023-01-26T06:45:44.252Z,34.50
2023-01-26T06:48:12.883Z,32.50
2023-01-26T06:50:40.963Z,32.80
2023-01-26T06:53:35.378Z,34.70
2023-01-26T06:56:23.454Z,30.50
2023-01-26T06:59:29.815Z,33.40
2023-01-26T07:02:26.498Z,30.00
2023-01-26T07:04:54.800Z,33.50
2023-01-26T07:07:24.721Z,32.20
2023-01-26T07:10:13.193Z,33.60
2023-01-26T07:12:42.959Z,33.60
2023-01-26T07:15:12.084Z,37.20
2023-01-26T07:17:41.004Z,31.30
2023-01-26T07:20:09.979Z,31.70
2023-01-26T07:22:38.277Z,33.60
2023-01-26T07:25:09.228Z,33.80
2023-01-26T07:27:38.020Z,37.10
2023-01-26T07:30:06.998Z,35.90
2023-01-26T07:32:35.684Z,36.10
2023-01-26T07:35:04.853Z,35.30
2023-01-26T07:37:33.233Z,35.50
2023-01-26T07:40:02.640Z,35.70
2023-01-26T07:42:31.550Z,36.30
2023-01-26T07:45:06.572Z,35.80
2023-01-26T07:47:36.105Z,35.70
2023-01-26T07:50:04.852Z,39.00
2023-01-26T07:52:33.025Z,40.10
2023-01-26T07:55:01.305Z,39.70
2023-01-26T07:57:29.559Z,39.30
2023-01-26T07:59:57.676Z,39.00
2023-01-26T08:02:25.942Z,40.70
2023-01-26T08:04:54.207Z,38.60
2023-01-26T08:07:22.731Z,39.50
2023-01-26T08:09:51.587Z,37.60
2023-01-26T08:12:19.864Z,40.40
2023-01-26T08:14:48.035Z,40.20
2023-01-26T08:17:17.731Z,38.50
2023-01-26T08:19:50.012Z,39.40
2023-01-26T08:22:18.312Z,40.90
2023-01-26T08:24:46.573Z,39.60
2023-01-26T08:27:16.301Z,42.10
2023-01-26T08:29:44.643Z,40.20
2023-01-26T08:32:12.799Z,40.90
2023-01-26T08:34:41.116Z,41.20
2023-01-26T08:37:09.265Z,43.20
2023-01-26T08:39:37.377Z,41.10
2023-01-26T08:42:05.533Z,40.30
2023-01-26T08:44:33.639Z,41.60
2023-01-26T08:47:01.776Z,41.90
2023-01-26T08:49:30.193Z,39.50
2023-01-26T08:51:58.639Z,41.00
2023-01-26T08:54:26.811Z,40.70
2023-01-26T08:56:55.505Z,43.70
2023-01-26T08:59:23.899Z,42.20
2023-01-26T09:01:52.246Z,40.60
2023-01-26T09:04:20.716Z,41.70
2023-01-26T09:06:48.925Z,40.90
2023-01-26T09:09:34.155Z,44.70
2023-01-26T09:12:02.599Z,40.90
2023-01-26T09:14:32.075Z,42.90
2023-01-26T09:17:02.405Z,41.70
2023-01-26T09:19:31.271Z,37.30
2023-01-26T09:21:59.672Z,36.80
2023-01-26T09:24:28.335Z,37.10
2023-01-26T09:26:57.728Z,38.50
2023-01-26T09:29:25.949Z,36.30
2023-01-26T09:31:54.214Z,38.50
2023-01-26T09:34:22.460Z,40.30
2023-01-26T09:36:51.180Z,41.20
2023-01-26T09:39:20.079Z,38.40
2023-01-26T09:41:48.144Z,38.20
2023-01-26T09:44:21.126Z,38.90
2023-01-26T09:47:19.773Z,38.50
2023-01-26T09:49:50.859Z,40.20
2023-01-26T09:52:38.088Z,39.80
2023-01-26T09:55:15.524Z,38.10
2023-01-26T09:57:47.652Z,38.40
2023-01-26T10:00:22.094Z,39.60
2023-01-26T10:03:22.162Z,39.10
2023-01-26T10:06:05.276Z,39.70
2023-01-26T10:08:51.973Z,39.20
2023-01-26T10:11:51.427Z,35.20
2023-01-26T10:14:25.703Z,71.40
2023-01-26T10:16:53.950Z,52.30
2023-01-26T10:19:37.679Z,45.10
2023-01-26T10:22:10.439Z,48.70
2023-01-26T10:24:38.562Z,47.50
2023-01-26T10:27:11.838Z,52.90
2023-01-26T10:29:40.088Z,39.70
2023-01-26T10:32:14.676Z,37.30
2023-01-26T10:34:43.558Z,35.70
2023-01-26T10:37:28.777Z,38.10
2023-01-26T10:40:04.928Z,58.10
2023-01-26T10:42:34.472Z,43.90
2023-01-26T10:45:07.332Z,38.50
2023-01-26T10:47:36.341Z,40.40
2023-01-26T10:50:18.815Z,38.00
2023-01-26T10:52:57.638Z,45.20
2023-01-26T10:55:26.312Z,35.90
2023-01-26T10:57:54.561Z,42.00
2023-01-26T11:00:29.206Z,33.70
2023-01-26T11:03:17.789Z,28.20
2023-01-26T11:05:56.557Z,29.60
2023-01-26T11:08:37.922Z,28.40
2023-01-26T11:13:36.672Z,25.10
2023-01-26T11:16:21.890Z,27.30
2023-01-26T11:18:57.893Z,29.10
2023-01-26T11:21:29.359Z,35.60
2023-01-26T11:24:26.448Z,34.00
2023-01-26T11:27:13.261Z,33.50
2023-01-26T11:29:44.016Z,32.80
2023-01-26T11:32:37.155Z,32.80
2023-01-26T11:35:13.196Z,33.20
2023-01-26T11:37:46.303Z,36.50
2023-01-26T11:40:39.622Z,34.90
2023-01-26T11:43:23.471Z,33.70
2023-01-26T11:46:08.892Z,36.30
2023-01-26T11:49:10.313Z,33.30
2023-01-26T11:52:04.353Z,33.10
2023-01-26T11:54:46.633Z,30.30
2023-01-26T11:57:52.793Z,31.90
2023-01-26T12:00:33.870Z,31.80
2023-01-26T12:05:43.313Z,29.80
2023-01-26T12:08:13.042Z,31.20
2023-01-26T12:10:56.539Z,30.30
2023-01-26T12:13:28.107Z,29.30
2023-01-26T12:16:00.616Z,29.80
2023-01-26T12:18:49.109Z,31.80
2023-01-26T12:21:22.082Z,31.50
2023-01-26T12:24:02.490Z,32.20
2023-01-26T12:26:36.970Z,34.40
2023-01-26T12:29:17.310Z,29.50
2023-01-26T12:31:54.679Z,28.80
2023-01-26T12:34:27.080Z,33.30
2023-01-26T12:37:28.450Z,33.60
2023-01-26T12:40:09.478Z,30.50
2023-01-26T12:42:56.910Z,28.00
2023-01-26T12:45:30.526Z,25.60
2023-01-26T12:48:14.854Z,26.80
2023-01-26T12:50:47.590Z,26.00
2023-01-26T12:53:21.759Z,23.50
2023-01-26T12:55:53.669Z,24.60
2023-01-26T12:58:27.707Z,26.70
2023-01-26T13:01:11.543Z,23.00
2023-01-26T13:04:01.920Z,28.20
2023-01-26T13:06:30.192Z,29.80
2023-01-26T13:08:58.725Z,31.40
2023-01-26T13:11:39.425Z,26.90
2023-01-26T13:14:43.444Z,27.20
2023-01-26T13:17:17.445Z,26.40
2023-01-26T13:19:45.699Z,24.40
2023-01-26T13:22:23.084Z,26.40
2023-01-26T13:25:31.714Z,25.30
2023-01-26T13:28:03.991Z,22.50
2023-01-26T13:30:44.031Z,24.30
2023-01-26T13:33:13.767Z,23.40
2023-01-26T13:35:41.988Z,25.00
2023-01-26T13:38:47.305Z,23.50
2023-01-26T13:41:19.432Z,22.90
2023-01-26T13:44:08.552Z,23.40
2023-01-26T13:46:44.117Z,21.60
2023-01-26T13:49:37.122Z,24.70
2023-01-26T13:52:17.991Z,23.10
2023-01-26T13:54:46.455Z,25.00
2023-01-26T13:57:26.004Z,23.10
2023-01-26T14:00:01.448Z,23.60
2023-01-26T14:02:39.098Z,22.50
2023-01-26T16:09:20.437Z,35.00
2023-01-26T16:11:48.368Z,33.60
2023-01-26T16:14:15.402Z,32.80
2023-01-26T16:16:42.344Z,37.50
2023-01-26T16:19:09.577Z,34.80
2023-01-26T16:21:40.946Z,34.80
2023-01-26T16:24:08.802Z,30.50
2023-01-26T16:26:37.221Z,30.70
2023-01-26T16:29:04.093Z,33.40
2023-01-26T16:31:32.209Z,32.20
2023-01-26T16:34:00.421Z,37.20
2023-01-26T16:36:27.226Z,37.40
2023-01-26T16:38:53.861Z,37.20
2023-01-26T16:41:27.207Z,37.40
2023-01-26T16:46:21.034Z,47.20
2023-01-26T16:48:48.320Z,37.50
2023-01-26T16:51:23.662Z,33.40
2023-01-26T16:53:50.721Z,31.60
2023-01-26T16:56:18.379Z,31.00
2023-01-26T16:58:45.525Z,33.40
2023-01-26T17:01:17.545Z,35.20
2023-01-26T17:03:44.789Z,32.60
2023-01-26T17:06:12.113Z,31.00
2023-01-26T17:14:46.174Z,31.90
2023-01-26T17:17:15.250Z,30.80
2023-01-26T17:19:44.660Z,34.20
2023-01-26T17:22:13.355Z,27.80
2023-01-26T17:24:42.825Z,28.20
2023-01-26T17:27:11.259Z,27.00
2023-01-26T17:29:42.479Z,26.20
2023-01-26T17:32:11.145Z,26.10
2023-01-26T17:34:39.277Z,25.00
2023-01-26T17:37:07.714Z,26.50
2023-01-26T17:39:35.947Z,30.80
2023-01-26T17:42:04.265Z,30.40
2023-01-26T17:44:32.419Z,30.90
2023-01-26T17:47:00.889Z,28.60
2023-01-26T17:49:30.542Z,25.50
2023-01-26T17:51:58.748Z,27.00
2023-01-26T17:54:27.834Z,26.40
2023-01-26T17:56:56.564Z,26.20
2023-01-26T17:59:25.613Z,29.60
2023-01-26T18:01:53.911Z,27.20
2023-01-26T18:04:22.285Z,26.90
2023-01-26T18:06:50.720Z,28.20
2023-01-26T18:09:19.094Z,28.00
2023-01-26T18:11:48.336Z,30.10
2023-01-26T18:14:16.473Z,30.50
2023-01-26T18:16:44.873Z,28.40
2023-01-26T18:19:13.564Z,26.50
2023-01-26T18:21:43.043Z,27.40
2023-01-26T18:24:11.319Z,25.00
2023-01-26T18:26:40.316Z,25.30
2023-01-26T18:29:09.075Z,26.20
2023-01-26T18:31:40.752Z,27.20
2023-01-26T18:34:10.772Z,28.40
2023-01-26T18:36:39.686Z,27.80
2023-01-26T18:39:10.798Z,28.00
2023-01-26T18:41:43.370Z,27.30
2023-01-26T18:44:12.134Z,27.50
2023-01-26T18:46:40.364Z,28.70
2023-01-26T18:49:10.191Z,31.70
2023-01-26T18:51:39.190Z,29.90
2023-01-26T18:54:09.899Z,27.70
2023-01-26T18:56:38.173Z,29.40
2023-01-26T18:59:09.933Z,30.70
2023-01-26T19:01:39.056Z,26.90
2023-01-26T19:04:07.660Z,27.70
2023-01-26T19:06:36.709Z,27.20
2023-01-26T19:09:06.506Z,28.90
2023-01-26T19:11:37.176Z,28.50
2023-01-26T19:14:06.265Z,29.50
2023-01-26T19:16:36.240Z,28.30
2023-01-26T19:19:05.265Z,28.50
2023-01-26T19:21:34.225Z,29.00
2023-01-26T19:24:06.312Z,27.60
2023-01-26T19:26:35.027Z,29.30
2023-01-26T19:29:03.809Z,29.00
2023-01-26T19:31:35.192Z,37.00
2023-01-26T19:34:05.932Z,32.10
2023-01-26T19:36:35.881Z,32.30
2023-01-26T19:39:04.220Z,29.00
2023-01-26T19:41:34.487Z,32.20
2023-01-26T19:44:02.632Z,29.00
2023-01-26T19:46:30.870Z,31.10
2023-01-26T19:48:59.129Z,32.10
2023-01-26T19:51:27.517Z,31.80
2023-01-26T19:53:58.288Z,28.70
2023-01-26T19:56:29.612Z,28.00
2023-01-26T19:59:03.423Z,26.40
2023-01-26T20:01:33.385Z,29.70
2023-01-26T20:04:13.244Z,31.70
2023-01-26T20:06:41.572Z,30.30
2023-01-26T20:09:10.641Z,29.90
2023-01-26T20:11:39.120Z,30.10
2023-01-26T20:14:11.232Z,33.50
2023-01-26T20:16:39.849Z,31.70
2023-01-26T20:19:08.023Z,31.10
2023-01-26T20:21:39.293Z,32.10
2023-01-26T20:26:36.453Z,29.60
2023-01-26T20:29:05.142Z,31.20
2023-01-26T20:31:33.791Z,32.00
2023-01-26T20:34:04.264Z,31.90
2023-01-26T20:36:33.288Z,31.20
2023-01-26T20:39:01.602Z,30.50
2023-01-26T20:41:32.696Z,29.60
2023-01-26T20:44:04.630Z,29.20
2023-01-26T20:46:40.288Z,27.40
2023-01-26T20:49:11.754Z,27.50
2023-01-26T20:51:42.740Z,25.20
2023-01-26T20:54:12.687Z,29.20
2023-01-26T20:56:41.108Z,28.70
2023-01-26T20:59:09.275Z,29.30
2023-01-26T21:01:37.950Z,26.50
2023-01-26T21:04:06.553Z,29.30
2023-01-26T21:06:35.920Z,29.90
2023-01-26T21:09:04.401Z,30.00
2023-01-26T21:11:33.505Z,30.40
2023-01-26T21:14:02.159Z,31.00
2023-01-26T21:16:33.378Z,30.00
2023-01-26T21:19:01.818Z,30.50
2023-01-26T21:21:30.908Z,27.10
2023-01-26T21:23:59.628Z,26.40
2023-01-26T21:26:28.655Z,25.30
2023-01-26T21:28:58.576Z,27.00
2023-01-26T21:31:29.420Z,26.70
2023-01-26T21:33:57.669Z,25.80
2023-01-26T21:36:28.043Z,29.80
2023-01-26T21:38:57.559Z,25.60
2023-01-26T21:41:46.306Z,25.00
2023-01-26T21:44:16.792Z,25.00
2023-01-26T21:46:46.174Z,25.00
2023-01-26T21:49:14.840Z,24.90
2023-01-26T21:52:03.186Z,25.30
2023-01-26T21:54:32.060Z,26.40
2023-01-26T21:57:00.757Z,28.00
2023-01-26T21:59:32.407Z,31.10
2023-01-26T22:02:00.886Z,28.10
2023-01-26T22:04:30.327Z,27.00
2023-01-26T22:06:58.559Z,26.70
2023-01-26T22:09:26.747Z,28.10
2023-01-26T22:11:55.123Z,26.70
2023-01-26T22:14:26.326Z,29.60
2023-01-26T22:16:55.282Z,28.20
2023-01-26T22:19:23.518Z,28.90
2023-01-26T22:21:51.722Z,31.30
2023-01-26T22:24:20.335Z,28.10
2023-01-26T22:26:48.964Z,28.70
2023-01-26T22:29:17.152Z,27.90
2023-01-26T22:31:45.769Z,28.00
2023-01-26T22:34:14.055Z,29.10
2023-01-26T22:36:42.600Z,27.70
2023-01-26T22:39:12.460Z,24.40
2023-01-26T22:41:40.904Z,27.40
2023-01-26T22:44:09.484Z,23.80
2023-01-26T22:46:38.084Z,25.80
2023-01-26T22:49:09.825Z,23.70
2023-01-26T22:51:38.203Z,26.40
2023-01-26T22:54:06.599Z,23.30
2023-01-26T22:56:34.866Z,24.50
2023-01-26T22:59:03.245Z,25.20
2023-01-26T23:01:33.982Z,24.30
2023-01-26T23:04:02.357Z,25.20
2023-01-26T23:06:31.247Z,27.80
2023-01-26T23:09:01.328Z,24.90
2023-01-26T23:11:30.761Z,26.40
2023-01-26T23:13:59.267Z,24.00
2023-01-26T23:16:28.023Z,23.30
2023-01-26T23:26:50.225Z,26.70
2023-01-26T23:29:16.978Z,26.70
2023-01-26T23:31:43.595Z,26.10
2023-01-26T23:34:10.363Z,23.40
2023-01-26T23:36:39.438Z,24.80
2023-01-26T23:39:06.156Z,23.70
2023-01-26T23:41:33.130Z,22.90
2023-01-26T23:43:59.969Z,23.90
2023-01-26T23:46:26.721Z,24.40
2023-01-26T23:48:53.561Z,23.20
2023-01-26T23:51:20.297Z,23.90
2023-01-26T23:53:47.117Z,21.20
2023-01-26T23:56:15.236Z,22.20
2023-01-26T23:58:41.836Z,20.00
